Time;durP1;ratioP1;P1;durP2;ratioP2;P2;SDS_P1;SDS_P2;PMS_P1;PMS_P2;Temp;Humidity;BMP_temperature;BMP_pressure;BME280_temperature;BME280_humidity;BME280_pressure;Samples;Min_cycle;Max_cycle;Signal;HPM_P1;HPM_P2
2024/03/14 00:01:49;;;;;;;6.40;2.67;;;;;;;10.03;100.00;101018.50;5038861;28;20476;-69
2024/03/14 00:04:16;;;;;;;3.60;2.17;;;;;;;9.93;100.00;101018.63;5038701;28;20982;-69
2024/03/14 00:06:43;;;;;;;7.27;2.70;;;;;;;9.85;100.00;101016.53;5038906;28;20496;-69
2024/03/14 00:09:10;;;;;;;6.87;3.30;;;;;;;9.84;100.00;101017.63;5038536;28;20444;-69
2024/03/14 00:11:37;;;;;;;6.37;2.93;;;;;;;9.78;100.00;101013.34;5038852;28;20442;-69
2024/03/14 00:14:04;;;;;;;5.60;2.77;;;;;;;9.73;100.00;101010.69;5038512;28;20569;-69
2024/03/14 00:16:31;;;;;;;7.13;2.93;;;;;;;9.74;100.00;101007.72;5038668;28;20558;-69
2024/03/14 00:18:59;;;;;;;9.90;2.50;;;;;;;9.73;100.00;101011.47;5038713;28;20437;-69
2024/03/14 00:21:26;;;;;;;3.50;1.87;;;;;;;9.69;100.00;101010.44;5038029;28;20477;-69
2024/03/14 00:23:53;;;;;;;4.93;2.40;;;;;;;9.68;100.00;101005.31;5038413;28;20464;-70
2024/03/14 00:26:19;;;;;;;6.60;3.20;;;;;;;9.70;100.00;101006.66;5038001;28;20791;-70
2024/03/14 00:28:46;;;;;;;5.00;2.53;;;;;;;9.72;100.00;101006.38;5038323;28;20521;-70
2024/03/14 00:31:13;;;;;;;7.27;3.40;;;;;;;9.71;100.00;101010.97;5038391;28;20521;-69
2024/03/14 00:33:40;;;;;;;8.93;3.47;;;;;;;9.68;100.00;101002.59;5038050;28;21016;-69
2024/03/14 00:36:07;;;;;;;4.33;2.20;;;;;;;9.68;100.00;101002.59;5046153;28;20490;-70
2024/03/14 00:38:34;;;;;;;5.70;2.53;;;;;;;9.69;100.00;101012.34;5046505;28;20477;-70
2024/03/14 00:41:01;;;;;;;6.30;2.33;;;;;;;9.70;100.00;101006.66;5038415;28;20438;-70
2024/03/14 00:43:28;;;;;;;5.20;2.57;;;;;;;9.70;100.00;101005.84;5038263;28;20545;-70
2024/03/14 00:45:55;;;;;;;4.70;2.40;;;;;;;9.67;100.00;101001.81;5038139;28;20438;-70
2024/03/14 00:48:21;;;;;;;5.67;3.30;;;;;;;9.65;100.00;101001.31;5038261;28;20434;-70
2024/03/14 00:50:49;;;;;;;8.77;2.97;;;;;;;9.65;100.00;100995.88;5037991;28;20438;-70
2024/03/14 00:53:16;;;;;;;5.10;2.90;;;;;;;9.62;100.00;100992.94;5037639;28;20490;-70
2024/03/14 00:55:43;;;;;;;5.57;2.93;;;;;;;9.60;100.00;100987.78;5037854;28;20504;-70
2024/03/14 00:58:10;;;;;;;5.70;2.50;;;;;;;9.59;100.00;100994.31;5037612;28;20980;-70
2024/03/14 01:00:37;;;;;;;5.47;2.70;;;;;;;9.57;100.00;100985.69;5037901;28;20460;-70
2024/03/14 01:03:04;;;;;;;5.43;3.03;;;;;;;9.57;100.00;100988.38;5037592;28;20509;-70
2024/03/14 01:05:31;;;;;;;6.47;3.13;;;;;;;9.55;100.00;100983.25;5037795;28;20434;-70
2024/03/14 01:07:58;;;;;;;5.33;2.77;;;;;;;9.56;100.00;100979.47;5037669;28;20448;-70
2024/03/14 01:10:24;;;;;;;5.27;2.33;;;;;;;9.57;100.00;100975.66;5037623;28;20440;-70
2024/03/14 01:12:51;;;;;;;4.90;1.93;;;;;;;9.58;100.00;100982.69;5037351;28;20546;-70
2024/03/14 01:15:18;;;;;;;12.73;3.87;;;;;;;9.65;100.00;100971.53;5037219;28;20479;-70
2024/03/14 01:17:45;;;;;;;6.23;2.33;;;;;;;9.70;100.00;100971.50;5037240;28;20446;-70
2024/03/14 01:20:16;;;;;;;6.73;2.53;;;;;;;9.70;100.00;100976.91;5037437;28;20485;-70
2024/03/14 01:22:42;;;;;;;6.40;3.10;;;;;;;9.73;100.00;100967.41;5037598;28;20454;-70
2024/03/14 01:25:09;;;;;;;7.20;3.30;;;;;;;9.73;100.00;100972.81;5052857;22;20581;-66
2024/03/14 01:27:36;;;;;;;9.83;2.63;;;;;;;9.72;100.00;100966.59;5053503;28;20852;-66
2024/03/14 01:30:03;;;;;;;6.00;2.60;;;;;;;9.69;100.00;100967.16;5053604;28;20468;-66
2024/03/14 01:32:29;;;;;;;8.30;3.53;;;;;;;9.67;100.00;100963.13;5053783;28;20550;-66
2024/03/14 01:34:56;;;;;;;6.50;2.97;;;;;;;9.68;100.00;100970.97;5036190;28;20504;-67
2024/03/14 01:37:23;;;;;;;5.00;2.60;;;;;;;9.67;100.00;100957.72;5037142;28;20524;-66
2024/03/14 01:39:49;;;;;;;7.33;2.97;;;;;;;9.69;100.00;100969.06;5037357;28;20490;-66
2024/03/14 01:42:16;;;;;;;4.10;2.53;;;;;;;9.68;100.00;100960.13;5037121;28;20520;-66
2024/03/14 01:44:56;;;;;;;5.77;1.80;;;;;;;9.69;100.00;100961.75;5036955;28;20438;-66
2024/03/14 01:47:23;;;;;;;5.13;2.20;;;;;;;9.69;100.00;100961.75;5037082;28;20434;-66
2024/03/14 01:49:50;;;;;;;5.33;3.33;;;;;;;9.71;100.00;100959.56;5036599;28;20474;-66
2024/03/14 01:52:17;;;;;;;6.20;2.83;;;;;;;9.74;100.00;100958.19;5036974;28;20458;-66
2024/03/14 01:54:43;;;;;;;3.90;2.57;;;;;;;9.77;100.00;100957.63;5036811;28;20547;-66
2024/03/14 01:57:10;;;;;;;10.23;3.07;;;;;;;9.80;100.00;100952.44;5036673;28;20468;-66
2024/03/14 01:59:37;;;;;;;3.87;2.47;;;;;;;9.85;100.00;100952.38;5036683;28;20442;-66
2024/03/14 02:02:05;;;;;;;6.30;3.40;;;;;;;9.85;100.00;100948.88;5036520;28;20438;-66
2024/03/14 02:04:31;;;;;;;6.50;3.23;;;;;;;9.86;100.00;100951.28;5037011;28;20453;-66
2024/03/14 02:06:58;;;;;;;8.00;3.30;;;;;;;9.85;100.00;100949.69;5036300;28;20445;-66
2024/03/14 02:09:26;;;;;;;9.07;3.30;;;;;;;9.86;100.00;100943.16;5036573;28;20457;-66
2024/03/14 02:11:53;;;;;;;5.93;3.00;;;;;;;9.90;100.00;100943.41;5036141;28;20508;-66
2024/03/14 02:14:20;;;;;;;7.17;3.10;;;;;;;9.91;100.00;100939.59;5036853;28;20482;-66
2024/03/14 02:16:47;;;;;;;5.43;3.13;;;;;;;9.96;100.00;100944.16;5036406;28;20438;-66
2024/03/14 02:19:13;;;;;;;7.30;3.10;;;;;;;9.97;100.00;100945.78;5036312;28;20440;-66
2024/03/14 02:21:40;;;;;;;6.73;2.97;;;;;;;9.93;100.00;100944.75;5036324;28;20529;-66
2024/03/14 02:24:07;;;;;;;6.53;3.57;;;;;;;9.92;100.00;100935.81;5036194;28;20461;-66
2024/03/14 02:26:40;;;;;;;7.23;3.80;;;;;;;9.92;100.00;100938.53;5035915;28;20958;-66
2024/03/14 02:29:07;;;;;;;4.90;2.20;;;;;;;9.93;100.00;100939.34;5036358;28;20425;-67
2024/03/14 02:31:34;;;;;;;5.87;2.70;;;;;;;9.96;100.00;100939.56;5035963;28;20458;-67
2024/03/14 02:34:01;;;;;;;10.20;4.10;;;;;;;9.96;100.00;100933.31;5035885;28;20485;-69
2024/03/14 02:36:26;;;;;;;4.90;2.53;;;;;;;9.98;100.00;100933.84;5035807;28;20477;-68
2024/03/14 02:38:54;;;;;;;8.50;3.27;;;;;;;9.98;100.00;100934.66;5035922;28;20442;-68
2024/03/14 02:41:20;;;;;;;4.30;2.43;;;;;;;10.00;100.00;100935.16;5035855;28;20629;-68
2024/03/14 02:43:47;;;;;;;6.87;3.17;;;;;;;10.02;100.00;100926.78;5035597;28;20458;-68
2024/03/14 02:46:14;;;;;;;5.07;2.60;;;;;;;10.07;100.00;100927.53;5035565;28;20517;-68
2024/03/14 02:48:41;;;;;;;5.30;3.00;;;;;;;10.09;100.00;100924.50;5035878;28;20813;-68
2024/03/14 02:51:08;;;;;;;6.67;3.00;;;;;;;10.07;100.00;100924.00;5035806;28;20478;-68
2024/03/14 02:53:36;;;;;;;5.03;2.67;;;;;;;10.09;100.00;100925.34;5035538;28;20875;-68
2024/03/14 02:56:03;;;;;;;6.73;2.67;;;;;;;10.14;100.00;100929.88;5035688;28;20445;-68
2024/03/14 02:58:30;;;;;;;5.17;2.20;;;;;;;10.18;100.00;100928.22;5035953;28;20438;-69
2024/03/14 03:00:56;;;;;;;5.10;2.07;;;;;;;10.22;100.00;100923.00;5035971;28;20450;-69
2024/03/14 03:03:23;;;;;;;6.83;2.63;;;;;;;10.25;100.00;100928.69;5035592;28;20466;-69
2024/03/14 03:05:50;;;;;;;5.87;2.67;;;;;;;10.24;100.00;100913.53;5036000;28;20534;-69
2024/03/14 03:08:17;;;;;;;7.40;3.17;;;;;;;10.26;100.00;100916.75;5035745;28;20491;-69
2024/03/14 03:10:43;;;;;;;5.07;2.83;;;;;;;10.28;100.00;100924.59;5035612;28;20466;-69
2024/03/14 03:13:10;;;;;;;6.23;3.00;;;;;;;10.29;100.00;100915.38;5035218;28;21063;-69
2024/03/14 03:15:38;;;;;;;8.30;3.20;;;;;;;10.29;100.00;100920.78;5035630;28;20486;-68
2024/03/14 03:18:07;;;;;;;8.30;3.10;;;;;;;10.33;100.00;100922.63;5035911;28;20533;-68
2024/03/14 03:20:34;;;;;;;5.40;2.90;;;;;;;10.41;100.00;100917.66;5035858;28;20442;-68
2024/03/14 03:23:06;;;;;;;5.17;2.60;;;;;;;10.43;100.00;100923.59;5035528;28;20490;-68
2024/03/14 03:25:32;;;;;;;4.43;2.03;;;;;;;10.44;100.00;100917.88;5036240;28;20503;-69
2024/03/14 03:27:59;;;;;;;7.33;3.27;;;;;;;10.45;100.00;100921.41;5035805;28;20876;-68
2024/03/14 03:30:25;;;;;;;8.10;3.20;;;;;;;10.45;100.00;100908.66;5035456;28;20527;-68
2024/03/14 03:32:52;;;;;;;7.10;3.07;;;;;;;10.48;100.00;100918.91;5035443;28;20795;-68
2024/03/14 03:35:21;;;;;;;5.60;2.73;;;;;;;10.51;100.00;100918.31;5035094;28;20648;-68
2024/03/14 03:37:47;;;;;;;12.23;3.97;;;;;;;10.51;100.00;100922.94;5035367;28;20452;-68
2024/03/14 03:40:15;;;;;;;7.47;2.70;;;;;;;10.52;100.00;100916.41;5035193;28;20913;-67
2024/03/14 03:42:41;;;;;;;6.50;3.03;;;;;;;10.54;100.00;100923.16;5035675;28;20462;-67
2024/03/14 03:45:10;;;;;;;6.10;2.70;;;;;;;10.58;100.00;100915.22;5035650;28;20430;-67
2024/03/14 03:47:36;;;;;;;6.00;2.90;;;;;;;10.59;100.00;100928.50;5035569;28;20521;-67
2024/03/14 03:50:03;;;;;;;6.37;3.10;;;;;;;10.61;100.00;100912.75;5035208;28;20445;-68
2024/03/14 03:52:29;;;;;;;8.80;3.47;;;;;;;10.64;100.00;100916.78;5035017;28;21022;-68
2024/03/14 03:54:55;;;;;;;13.57;3.27;;;;;;;10.66;100.00;100919.19;5035402;28;20481;-68
2024/03/14 03:57:21;;;;;;;6.87;3.20;;;;;;;10.68;100.00;100919.72;5037190;28;20442;-68
2024/03/14 03:59:48;;;;;;;6.73;3.77;;;;;;;10.69;100.00;100921.34;5039034;28;20446;-68
2024/03/14 04:02:14;;;;;;;13.43;4.33;;;;;;;10.67;100.00;100915.38;5038818;28;20220;-68
2024/03/14 04:04:41;;;;;;;8.80;4.07;;;;;;;10.70;100.00;100917.50;5038684;28;20508;-68
2024/03/14 04:07:10;;;;;;;6.27;3.00;;;;;;;10.71;100.00;100919.91;5038948;28;20235;-68
2024/03/14 04:09:37;;;;;;;8.53;3.30;;;;;;;10.75;100.00;100915.53;5039194;28;20801;-68
2024/03/14 04:12:04;;;;;;;8.83;3.50;;;;;;;10.78;100.00;100914.94;5038873;28;20961;-68
2024/03/14 04:14:30;;;;;;;7.67;3.33;;;;;;;10.82;100.00;100923.31;5038868;28;20481;-68
2024/03/14 04:16:56;;;;;;;7.60;3.60;;;;;;;10.82;100.00;100917.88;5038646;28;20496;-68
2024/03/14 04:19:23;;;;;;;10.33;3.60;;;;;;;10.82;100.00;100912.47;5038529;28;20853;-68
2024/03/14 04:21:49;;;;;;;18.00;3.53;;;;;;;10.82;100.00;100915.97;5038205;28;20235;-68
2024/03/14 04:24:17;;;;;;;9.70;3.83;;;;;;;10.87;100.00;100920.50;5038603;28;20840;-68
2024/03/14 04:26:44;;;;;;;6.13;3.00;;;;;;;10.87;100.00;100915.09;5038187;28;20465;-68
2024/03/14 04:29:11;;;;;;;8.17;3.73;;;;;;;10.85;100.00;100914.59;5038398;28;20529;-68
2024/03/14 04:31:37;;;;;;;10.60;3.90;;;;;;;10.88;100.00;100926.72;5038488;28;20938;-68
2024/03/14 04:34:05;;;;;;;5.63;3.20;;;;;;;10.89;100.00;100921.03;5037900;28;20857;-67
2024/03/14 04:36:33;;;;;;;11.17;3.97;;;;;;;10.95;100.00;100917.13;5038441;28;20442;-68
2024/03/14 04:39:00;;;;;;;8.20;3.40;;;;;;;10.94;100.00;100923.66;5038522;28;20442;-67
2024/03/14 04:41:28;;;;;;;8.20;3.10;;;;;;;10.95;100.00;100922.56;5037961;28;20863;-67
2024/03/14 04:43:54;;;;;;;7.23;3.43;;;;;;;10.96;100.00;100920.66;5038253;28;20900;-67
2024/03/14 04:46:21;;;;;;;8.13;3.73;;;;;;;10.95;100.00;100921.75;5037764;28;20786;-68
2024/03/14 04:48:51;;;;;;;7.17;2.97;;;;;;;10.95;100.00;100919.84;5038425;28;20779;-67
2024/03/14 04:51:18;;;;;;;8.00;3.80;;;;;;;10.93;100.00;100913.09;5038522;28;20439;-67
2024/03/14 04:53:46;;;;;;;5.83;3.00;;;;;;;10.95;100.00;100919.84;5038084;28;20466;-67
2024/03/14 04:56:13;;;;;;;10.90;3.23;;;;;;;10.98;100.00;100926.56;5037677;28;20441;-67
2024/03/14 04:58:39;;;;;;;10.27;4.10;;;;;;;10.98;100.00;100926.56;5037949;28;20446;-67
2024/03/14 05:01:06;;;;;;;11.40;4.00;;;;;;;10.97;100.00;100924.97;5037595;28;20844;-67
2024/03/14 05:03:33;;;;;;;8.63;3.80;;;;;;;10.93;100.00;100919.31;5037699;28;20561;-67
2024/03/14 05:05:59;;;;;;;12.80;5.03;;;;;;;10.97;100.00;100914.13;5037798;28;20521;-67
2024/03/14 05:08:26;;;;;;;9.33;3.90;;;;;;;10.96;100.00;100917.94;5037084;28;20442;-67
2024/03/14 05:10:53;;;;;;;9.30;3.80;;;;;;;10.96;100.00;100923.34;5037620;28;20993;-68
2024/03/14 05:13:20;;;;;;;8.13;4.30;;;;;;;10.99;100.00;100925.50;5037566;28;20541;-68
2024/03/14 05:15:47;;;;;;;9.77;3.93;;;;;;;11.00;100.00;100918.97;5037382;28;20478;-68
2024/03/14 05:18:13;;;;;;;11.17;4.03;;;;;;;10.97;100.00;100916.84;5037226;28;20861;-68
2024/03/14 05:20:41;;;;;;;12.10;3.70;;;;;;;10.99;100.00;100920.06;5037646;28;20525;-68
2024/03/14 05:23:08;;;;;;;12.80;4.07;;;;;;;11.00;100.00;100914.34;5037048;28;20465;-68
2024/03/14 05:25:35;;;;;;;12.97;4.00;;;;;;;11.02;100.00;100912.16;5037198;28;20450;-68
2024/03/14 05:28:02;;;;;;;9.73;3.43;;;;;;;11.04;100.00;100915.34;5037462;28;20446;-68
2024/03/14 05:30:29;;;;;;;10.37;4.20;;;;;;;11.05;100.00;100916.97;5037593;28;20442;-68
2024/03/14 05:32:59;;;;;;;10.07;3.80;;;;;;;11.06;100.00;100924.00;5036730;28;20488;-68
2024/03/14 05:35:25;;;;;;;7.50;3.40;;;;;;;11.08;100.00;100921.00;5037436;28;20493;-68
2024/03/14 05:37:52;;;;;;;11.83;5.17;;;;;;;11.07;100.00;100919.41;5036852;28;20533;-68
2024/03/14 05:40:19;;;;;;;8.67;2.90;;;;;;;11.08;100.00;100926.44;5036819;28;20601;-68
2024/03/14 05:42:45;;;;;;;13.50;4.17;;;;;;;11.11;100.00;100926.66;5036650;28;20459;-68
2024/03/14 05:45:13;;;;;;;10.57;4.20;;;;;;;11.14;100.00;100927.94;5036705;28;20441;-67
2024/03/14 05:47:40;;;;;;;7.40;3.40;;;;;;;11.17;100.00;100924.66;5036827;28;20450;-67
2024/03/14 05:50:09;;;;;;;7.93;3.40;;;;;;;11.19;100.00;100922.44;5036302;28;20533;-67
2024/03/14 05:52:36;;;;;;;7.90;3.30;;;;;;;11.18;100.00;100926.25;5036509;28;21040;-68
2024/03/14 05:55:03;;;;;;;7.40;3.40;;;;;;;11.18;100.00;100923.53;5036086;28;20525;-68
2024/03/14 05:57:29;;;;;;;9.07;3.80;;;;;;;11.15;100.00;100920.59;5036584;28;20886;-66
2024/03/14 05:59:56;;;;;;;12.83;4.80;;;;;;;11.14;100.00;100921.72;5036385;28;20438;-66
2024/03/14 06:02:23;;;;;;;8.50;4.17;;;;;;;11.14;100.00;100919.00;5036435;28;20497;-66
2024/03/14 06:04:50;;;;;;;7.93;4.00;;;;;;;11.13;100.00;100922.81;5036048;28;20541;-66
2024/03/14 06:07:18;;;;;;;13.13;5.43;;;;;;;11.15;100.00;100920.59;5036451;28;20529;-67
2024/03/14 06:09:45;;;;;;;8.63;4.27;;;;;;;11.14;100.00;100919.00;5036992;28;20457;-67
2024/03/14 06:12:12;;;;;;;14.47;4.17;;;;;;;11.14;100.00;100922.53;5036159;28;20478;-67
2024/03/14 06:14:41;;;;;;;13.07;4.20;;;;;;;11.16;100.00;100920.34;5036392;28;20588;-67
2024/03/14 06:17:07;;;;;;;7.20;3.30;;;;;;;11.14;100.00;100925.22;5036668;28;20522;-66
2024/03/14 06:19:34;;;;;;;9.63;3.40;;;;;;;11.14;100.00;100930.66;5035365;28;20442;-67
2024/03/14 06:22:02;;;;;;;11.23;4.47;;;;;;;11.16;100.00;100923.03;5035882;28;20977;-67
2024/03/14 06:24:29;;;;;;;9.87;3.57;;;;;;;11.18;100.00;100923.53;5036367;28;20442;-67
2024/03/14 06:26:55;;;;;;;13.60;4.20;;;;;;;11.18;100.00;100926.25;5035786;28;20454;-67
2024/03/14 06:29:22;;;;;;;10.67;4.03;;;;;;;11.23;100.00;100928.06;5036131;28;20946;-67
2024/03/14 06:31:50;;;;;;;8.20;4.07;;;;;;;11.23;100.00;100936.22;5035848;28;20838;-66
2024/03/14 06:34:17;;;;;;;7.03;3.00;;;;;;;11.24;100.00;100935.91;5036085;28;20445;-66
2024/03/14 06:36:43;;;;;;;9.70;3.60;;;;;;;11.27;100.00;100927.19;5035754;28;20973;-67
2024/03/14 06:39:11;;;;;;;13.63;4.30;;;;;;;11.30;100.00;100933.94;5035868;28;20439;-66
2024/03/14 06:41:38;;;;;;;8.80;4.10;;;;;;;11.29;100.00;100932.31;5036002;28;20442;-66
2024/03/14 06:44:06;;;;;;;13.40;3.80;;;;;;;11.34;100.00;100935.75;5035540;28;20549;-66
2024/03/14 06:46:33;;;;;;;11.20;4.77;;;;;;;11.41;100.00;100926.41;5036465;28;20969;-66
2024/03/14 06:49:02;;;;;;;14.00;5.70;;;;;;;11.43;100.00;100935.88;5035913;28;20524;-66
2024/03/14 06:51:28;;;;;;;12.70;4.80;;;;;;;11.42;100.00;100934.28;5035864;28;20484;-67
2024/03/14 06:53:55;;;;;;;12.00;3.67;;;;;;;11.43;100.00;100937.78;5035673;28;20466;-67
2024/03/14 06:56:23;;;;;;;11.27;4.37;;;;;;;11.47;100.00;100939.59;5035453;28;20524;-68
2024/03/14 06:58:50;;;;;;;12.87;4.47;;;;;;;11.47;100.00;100936.09;5035953;28;20448;-68
2024/03/14 07:01:17;;;;;;;10.90;4.30;;;;;;;11.52;100.00;100941.41;5035882;28;20458;-68
2024/03/14 07:03:44;;;;;;;8.87;3.67;;;;;;;11.52;100.00;100941.41;5036049;28;20820;-68
2024/03/14 07:06:12;;;;;;;9.37;4.00;;;;;;;11.54;100.00;100939.19;5035655;28;20484;-68
2024/03/14 07:08:39;;;;;;;10.43;4.07;;;;;;;11.57;100.00;100944.84;5035857;28;20441;-68
2024/03/14 07:11:05;;;;;;;6.20;3.27;;;;;;;11.59;100.00;100952.66;5035440;28;20442;-68
2024/03/14 07:13:35;;;;;;;12.30;4.27;;;;;;;11.59;100.00;100948.03;5035400;28;20992;-66
2024/03/14 07:16:02;;;;;;;13.50;4.70;;;;;;;11.64;100.00;100955.28;5035707;28;20485;-66
2024/03/14 07:18:31;;;;;;;15.93;5.07;;;;;;;11.66;100.00;100957.72;5035577;28;20438;-66
2024/03/14 07:20:58;;;;;;;10.50;4.60;;;;;;;11.69;100.00;100949.00;5035660;28;20442;-66
2024/03/14 07:23:25;;;;;;;12.60;4.83;;;;;;;11.71;100.00;100950.28;5035472;28;20462;-66
2024/03/14 07:25:55;;;;;;;10.10;4.20;;;;;;;11.75;100.00;100959.44;5075588;22;20490;-66
2024/03/14 07:28:22;;;;;;;10.30;3.73;;;;;;;11.76;100.00;100958.31;5036110;28;20466;-68
2024/03/14 07:30:49;;;;;;;14.97;5.20;;;;;;;11.77;100.00;100959.13;5035451;28;20523;-68
2024/03/14 07:33:16;;;;;;;13.00;4.50;;;;;;;11.80;100.00;100953.91;5038342;28;20831;-68
2024/03/14 07:35:44;;;;;;;16.10;5.50;;;;;;;11.85;100.00;100961.97;5039178;28;21019;-70
2024/03/14 07:38:11;;;;;;;8.03;4.60;;;;;;;11.86;100.00;100966.34;5039727;28;20452;-69
2024/03/14 07:40:38;;;;;;;15.30;5.13;;;;;;;11.90;100.00;100963.81;5039350;28;20476;-70
2024/03/14 07:43:05;;;;;;;12.30;5.27;;;;;;;11.95;100.00;100971.84;5038861;28;20494;-70
2024/03/14 07:45:31;;;;;;;8.40;3.90;;;;;;;11.95;100.00;100968.31;5038916;28;20919;-70
2024/03/14 07:47:59;;;;;;;11.60;5.17;;;;;;;11.99;100.00;100978.28;5039166;28;20524;-70
2024/03/14 07:50:25;;;;;;;13.30;5.13;;;;;;;12.00;100.00;100977.19;5039131;28;20708;-69
2024/03/14 07:52:54;;;;;;;14.03;4.53;;;;;;;12.05;100.00;100974.38;5038931;28;20464;-69
2024/03/14 07:55:21;;;;;;;14.23;5.20;;;;;;;12.11;100.00;100985.94;5038954;28;20986;-69
2024/03/14 07:57:48;;;;;;;14.00;5.87;;;;;;;12.15;100.00;100980.72;5038718;28;20446;-69
2024/03/14 08:00:16;;;;;;;15.07;6.33;;;;;;;12.19;100.00;100979.81;5038659;28;20521;-69
2024/03/14 08:02:42;;;;;;;14.23;5.53;;;;;;;12.28;100.00;100978.00;5038776;28;20458;-69
2024/03/14 08:05:11;;;;;;;13.60;4.47;;;;;;;12.35;100.00;100985.72;5039156;28;20438;-69
2024/03/14 08:07:38;;;;;;;12.00;5.00;;;;;;;12.35;100.00;100983.00;5039009;28;20534;-70
2024/03/14 08:10:05;;;;;;;10.57;4.33;;;;;;;12.41;100.00;100978.31;5038711;28;20438;-69
2024/03/14 08:12:33;;;;;;;15.57;5.80;;;;;;;12.49;100.00;100983.03;5038653;28;20454;-69
2024/03/14 08:15:11;;;;;;;10.20;5.37;;;;;;;12.58;100.00;100982.00;5038825;28;20500;-69
2024/03/14 08:17:39;;;;;;;11.20;4.40;;;;;;;12.65;100.00;100984.28;5040275;28;20426;-69
2024/03/14 08:20:07;;;;;;;13.87;6.27;;;;;;;12.66;100.00;100985.91;5039039;28;20438;-70
2024/03/14 08:22:35;;;;;;;12.13;5.87;;;;;;;12.71;100.00;100988.53;5038634;28;20462;-69
2024/03/14 08:25:02;;;;;;;11.47;4.93;;;;;;;12.71;100.00;100993.97;5037999;28;20460;-69
2024/03/14 08:27:29;;;;;;;10.70;4.87;;;;;;;12.81;100.00;100996.44;5038218;28;20480;-68
2024/03/14 08:29:56;;;;;;;15.53;4.50;;;;;;;12.85;100.00;100994.72;5038304;28;20446;-69
2024/03/14 08:32:23;;;;;;;15.17;5.50;;;;;;;12.88;100.00;101002.28;5038175;28;20462;-68
2024/03/14 08:34:49;;;;;;;12.00;4.67;;;;;;;12.91;100.00;100992.69;5038166;28;20441;-67
2024/03/14 08:37:16;;;;;;;8.60;4.37;;;;;;;12.94;100.00;100991.28;5038194;28;20488;-68
2024/03/14 08:39:43;;;;;;;11.33;5.03;;;;;;;13.00;100.00;100998.19;5037849;28;20434;-68
2024/03/14 08:42:10;;;;;;;11.33;4.77;;;;;;;13.04;100.00;100993.75;5037974;28;20505;-69
2024/03/14 08:44:37;;;;;;;8.00;4.13;;;;;;;13.18;100.00;100985.53;5037933;28;20885;-69
2024/03/14 08:47:05;;;;;;;15.10;6.20;;;;;;;13.32;100.00;100989.84;5038060;28;20521;-69
2024/03/14 08:49:31;;;;;;;11.23;4.60;;;;;;;13.41;100.00;100994.53;5038134;28;20860;-71
2024/03/14 08:52:00;;;;;;;11.90;5.40;;;;;;;13.44;100.00;100999.38;5037825;28;20434;-72
2024/03/14 08:54:29;;;;;;;14.47;4.97;;;;;;;13.44;100.00;100996.66;5038111;28;20442;-69
2024/03/14 08:56:58;;;;;;;14.43;4.60;;;;;;;13.45;100.00;101006.41;5038531;28;20752;-68
2024/03/14 08:59:26;;;;;;;8.80;3.83;;;;;;;13.45;100.00;101006.41;5038221;28;20434;-67
2024/03/14 09:01:54;;;;;;;11.00;4.73;;;;;;;13.45;100.00;101006.41;5037744;28;20533;-69
2024/03/14 09:04:21;;;;;;;13.90;5.77;;;;;;;13.55;100.00;100998.03;5037575;28;20820;-67
2024/03/14 09:06:50;;;;;;;10.53;5.67;;;;;;;13.62;100.00;100995.66;5037342;28;20438;-68
2024/03/14 09:09:26;;;;;;;11.63;4.80;;;;;;;13.66;100.00;100991.19;5037643;28;20438;-68
2024/03/14 09:11:55;;;;;;;9.13;4.83;;;;;;;13.71;100.00;100991.03;5039044;28;20572;-68
2024/03/14 09:14:24;;;;;;;16.60;5.00;;;;;;;13.80;100.00;100989.16;5037601;28;20485;-68
2024/03/14 09:16:52;;;;;;;10.57;4.43;;;;;;;13.88;100.00;100990.34;5037752;28;20485;-69
2024/03/14 09:19:18;;;;;;;14.67;6.30;;;;;;;13.94;100.00;100991.00;5037560;28;20848;-69
2024/03/14 09:21:45;;;;;;;8.20;4.00;;;;;;;13.89;100.00;100990.03;5037295;28;20487;-69
2024/03/14 09:24:12;;;;;;;10.27;4.80;;;;;;;13.87;99.93;100983.28;5037395;28;20526;-69
2024/03/14 09:26:42;;;;;;;15.17;5.43;;;;;;;13.89;98.54;100984.56;5037011;28;20802;-69
2024/03/14 09:29:08;;;;;;;10.37;4.17;;;;;;;13.89;97.88;100997.38;5037706;28;20876;-69
2024/03/14 09:31:38;;;;;;;12.00;4.37;;;;;;;13.89;98.46;100992.75;5037326;28;20442;-68
2024/03/14 09:34:05;;;;;;;9.40;3.53;;;;;;;13.93;97.81;100995.66;5037122;28;20454;-68
2024/03/14 09:36:32;;;;;;;14.67;5.10;;;;;;;13.99;97.03;100996.31;5037009;28;20482;-68
2024/03/14 09:38:59;;;;;;;8.33;3.30;;;;;;;14.03;96.92;101000.00;5037075;28;20438;-68
2024/03/14 09:41:25;;;;;;;12.80;5.67;;;;;;;14.06;96.51;100999.41;5037056;28;20820;-68
2024/03/14 09:43:52;;;;;;;9.47;4.17;;;;;;;14.08;95.18;100991.72;5036885;28;20811;-68
2024/03/14 09:46:20;;;;;;;8.07;4.40;;;;;;;14.07;95.49;100985.44;5036592;28;20810;-67
2024/03/14 09:48:46;;;;;;;13.90;4.67;;;;;;;14.13;94.59;100989.66;5036709;28;20470;-69
2024/03/14 09:51:13;;;;;;;7.70;3.50;;;;;;;14.17;92.71;100989.84;5036520;28;20438;-70
2024/03/14 09:53:40;;;;;;;7.03;3.53;;;;;;;14.15;90.36;101002.94;5036582;28;20504;-69
2024/03/14 09:56:08;;;;;;;9.67;4.20;;;;;;;14.09;91.09;100993.31;5036304;28;20474;-69
2024/03/14 09:58:34;;;;;;;8.73;3.30;;;;;;;14.04;91.35;100994.28;5036541;28;20454;-69
2024/03/14 10:01:03;;;;;;;8.90;3.60;;;;;;;13.95;90.84;100989.91;5036672;28;20493;-69
2024/03/14 10:03:30;;;;;;;7.70;3.23;;;;;;;13.95;91.28;100987.97;5036556;28;20466;-69
2024/03/14 10:05:57;;;;;;;7.93;3.07;;;;;;;13.97;92.01;100984.94;5036561;28;20596;-69
2024/03/14 10:08:24;;;;;;;7.03;3.07;;;;;;;14.04;91.37;100982.56;5036485;28;20485;-69
2024/03/14 10:10:51;;;;;;;7.70;3.00;;;;;;;14.12;91.48;100985.34;5036610;28;20442;-70
2024/03/14 10:13:24;;;;;;;8.60;3.17;;;;;;;14.19;90.26;100982.13;5036399;28;20466;-69
2024/03/14 10:15:51;;;;;;;7.40;2.60;;;;;;;14.23;89.94;100979.59;5036182;28;20829;-69
2024/03/14 10:18:19;;;;;;;12.30;4.10;;;;;;;14.29;89.88;100981.03;5036383;28;20438;-69
2024/03/14 10:20:45;;;;;;;7.53;2.83;;;;;;;14.34;88.79;100973.53;5036001;28;20441;-69
2024/03/14 10:23:15;;;;;;;7.23;3.03;;;;;;;14.31;88.93;100984.28;5036288;28;20549;-69
2024/03/14 10:25:50;;;;;;;9.93;3.20;;;;;;;14.33;89.41;100979.28;5036326;28;20454;-69
2024/03/14 10:28:17;;;;;;;8.00;3.37;;;;;;;14.41;88.25;100975.78;5037494;28;20539;-69
2024/03/14 10:30:49;;;;;;;6.10;3.00;;;;;;;14.44;88.44;100975.16;5036257;28;20446;-69
2024/03/14 10:33:16;;;;;;;6.27;3.10;;;;;;;14.55;87.54;100972.97;5035817;28;20549;-69
2024/03/14 10:35:43;;;;;;;12.83;3.70;;;;;;;14.62;87.91;100973.31;5036325;28;20446;-69
2024/03/14 10:38:11;;;;;;;7.53;2.70;;;;;;;14.78;87.61;100960.00;5035984;28;20446;-67
2024/03/14 10:40:37;;;;;;;7.47;3.20;;;;;;;14.91;86.28;100961.75;5035850;28;20446;-67
2024/03/14 10:43:04;;;;;;;7.00;2.70;;;;;;;15.05;84.45;100970.63;5035902;28;20802;-67
2024/03/14 10:45:31;;;;;;;7.30;2.93;;;;;;;15.13;83.87;100952.59;5035580;28;20513;-67
2024/03/14 10:47:58;;;;;;;5.27;2.23;;;;;;;15.26;83.47;100962.53;5035603;28;20934;-67
2024/03/14 10:50:26;;;;;;;7.30;2.93;;;;;;;15.40;82.58;100959.63;5035884;28;20476;-67
2024/03/14 10:52:54;;;;;;;7.10;3.83;;;;;;;15.47;80.70;100959.16;5035894;28;20458;-68
2024/03/14 10:55:21;;;;;;;8.67;2.80;;;;;;;15.51;80.58;100957.38;5036048;28;20447;-69
2024/03/14 10:57:48;;;;;;;5.70;2.40;;;;;;;15.57;79.35;100956.88;5035677;28;20482;-69
2024/03/14 11:00:17;;;;;;;4.87;2.30;;;;;;;15.61;79.75;100948.81;5035475;28;20477;-69
2024/03/14 11:02:45;;;;;;;6.50;3.10;;;;;;;15.74;78.75;100947.06;5035992;28;20462;-69
2024/03/14 11:05:12;;;;;;;6.60;2.83;;;;;;;15.84;78.84;100955.69;5035438;28;20439;-68
2024/03/14 11:07:39;;;;;;;8.07;3.40;;;;;;;15.94;76.67;100940.06;5035345;28;20431;-67
2024/03/14 11:10:09;;;;;;;5.50;2.70;;;;;;;16.00;74.55;100950.47;5035673;28;20438;-67
2024/03/14 11:12:36;;;;;;;4.77;2.63;;;;;;;16.04;72.27;100937.75;5035789;28;20462;-68
2024/03/14 11:15:03;;;;;;;8.60;2.27;;;;;;;16.03;71.92;100936.16;5035323;28;20434;-67
2024/03/14 11:17:30;;;;;;;6.67;2.47;;;;;;;16.11;73.74;100934.50;5035182;28;20485;-67